createdAt,value
2022-09-11T00:00:25.356Z,97.23
2022-09-11T00:01:25.347Z,97.23
2022-09-11T00:02:25.348Z,97.18
2022-09-11T00:03:25.383Z,97.18
2022-09-11T00:04:25.325Z,97.18
2022-09-11T00:05:25.280Z,97.18
2022-09-11T00:06:29.828Z,97.28
2022-09-11T00:07:25.286Z,97.28
2022-09-11T00:08:25.295Z,97.28
2022-09-11T00:09:25.283Z,97.33
2022-09-11T00:10:25.203Z,97.53
2022-09-11T00:11:25.282Z,97.53
2022-09-11T00:12:25.238Z,97.43
2022-09-11T00:13:25.225Z,97.43
2022-09-11T00:14:25.246Z,97.33
2022-09-11T00:15:25.187Z,97.33
2022-09-11T00:16:25.233Z,97.23
2022-09-11T00:17:25.121Z,97.23
2022-09-11T00:18:25.236Z,97.23
2022-09-11T00:19:25.161Z,97.23
2022-09-11T00:20:25.098Z,97.23
2022-09-11T00:21:25.116Z,97.13
2022-09-11T00:22:25.067Z,97.13
2022-09-11T00:23:25.052Z,97.13
2022-09-11T00:24:25.096Z,97.13
2022-09-11T00:25:25.071Z,97.07
2022-09-11T00:26:25.045Z,97.17
2022-09-11T00:27:25.053Z,97.17
2022-09-11T00:28:25.010Z,97.17
2022-09-11T00:29:25.046Z,97.17
2022-09-11T00:30:24.966Z,97.17
2022-09-11T00:31:25.040Z,97.17
2022-09-11T00:32:24.998Z,97.17
2022-09-11T00:33:25.052Z,97.17
2022-09-11T00:34:24.970Z,97.17
2022-09-11T00:35:24.967Z,97.17
2022-09-11T00:36:24.943Z,97.07
2022-09-11T00:37:24.934Z,97.07
2022-09-11T00:38:24.957Z,97.07
2022-09-11T00:39:24.887Z,97.07
2022-09-11T00:40:24.977Z,97.17
2022-09-11T00:41:24.900Z,97.17
2022-09-11T00:42:24.849Z,97.27
2022-09-11T00:43:24.908Z,97.27
2022-09-11T00:44:24.826Z,97.27
2022-09-11T00:45:24.890Z,97.27
2022-09-11T00:46:24.814Z,97.27
2022-09-11T00:47:24.815Z,97.27
2022-09-11T00:48:24.824Z,97.27
2022-09-11T00:49:24.744Z,97.27
2022-09-11T00:50:24.776Z,97.17
2022-09-11T00:51:24.756Z,97.17
2022-09-11T00:52:24.716Z,97.27
2022-09-11T00:53:24.717Z,97.27
2022-09-11T00:54:24.691Z,97.27
2022-09-11T00:55:24.678Z,97.27
2022-09-11T00:56:24.728Z,97.32
2022-09-11T00:57:24.684Z,97.32
2022-09-11T00:58:24.686Z,97.32
2022-09-11T00:59:24.637Z,97.22
2022-09-11T01:00:24.637Z,97.22
2022-09-11T01:01:24.623Z,97.22
2022-09-11T01:02:27.406Z,97.22
2022-09-11T01:03:24.612Z,97.11
2022-09-11T01:04:24.629Z,97.11
2022-09-11T01:05:24.604Z,97.11
2022-09-11T01:06:24.582Z,97.11
2022-09-11T01:07:24.610Z,97.11
2022-09-11T01:08:24.567Z,97.11
2022-09-11T01:09:24.563Z,97.11
2022-09-11T01:10:24.576Z,97.11
2022-09-11T01:11:24.528Z,97.11
2022-09-11T01:12:24.516Z,97.11
2022-09-11T01:13:24.503Z,97.02
2022-09-11T01:14:24.549Z,97.11
2022-09-11T01:15:24.472Z,97.11
2022-09-11T01:16:24.487Z,97.11
2022-09-11T01:17:24.465Z,97.11
2022-09-11T01:18:24.510Z,97.11
2022-09-11T01:19:24.496Z,97.11
2022-09-11T01:20:24.415Z,97.22
2022-09-11T01:21:24.371Z,97.22
2022-09-11T01:22:24.390Z,97.32
2022-09-11T01:23:24.394Z,97.42
2022-09-11T01:24:24.385Z,97.22
2022-09-11T01:25:24.413Z,97.42
2022-09-11T01:26:24.340Z,97.52
2022-09-11T01:27:24.335Z,97.72
2022-09-11T01:28:24.327Z,97.83
2022-09-11T01:29:24.363Z,97.72
2022-09-11T01:30:24.337Z,97.92
2022-09-11T01:31:24.333Z,98.03
2022-09-11T01:32:24.312Z,98.03
2022-09-11T01:33:24.241Z,97.98
2022-09-11T01:34:24.268Z,98.08
2022-09-11T01:35:24.374Z,98.39
2022-09-11T01:36:24.275Z,98.49
2022-09-11T01:37:24.198Z,98.49
2022-09-11T01:38:24.216Z,98.49
2022-09-11T01:39:24.202Z,98.39
2022-09-11T01:40:24.217Z,98.39
2022-09-11T01:41:24.155Z,98.28
2022-09-11T01:42:24.174Z,98.18
2022-09-11T01:43:24.158Z,98.18
2022-09-11T01:44:24.106Z,98.08
2022-09-11T01:45:24.180Z,98.08
2022-09-11T01:46:24.154Z,97.98
2022-09-11T01:47:24.102Z,97.88
2022-09-11T01:48:24.067Z,97.78
2022-09-11T01:49:24.115Z,97.67
2022-09-11T01:50:24.039Z,97.78
2022-09-11T01:51:24.044Z,97.78
2022-09-11T01:52:24.055Z,97.88
2022-09-11T01:53:24.002Z,97.78
2022-09-11T01:54:24.030Z,97.78
2022-09-11T01:55:23.996Z,97.98
2022-09-11T01:56:23.994Z,97.98
2022-09-11T01:57:23.978Z,97.98
2022-09-11T01:58:23.964Z,97.98
2022-09-11T01:59:23.932Z,98.08
2022-09-11T02:00:23.963Z,98.08
2022-09-11T02:01:23.966Z,98.08
2022-09-11T02:02:23.975Z,98.13
2022-09-11T02:03:23.923Z,98.03
2022-09-11T02:04:23.872Z,98.03
2022-09-11T02:05:23.867Z,98.03
2022-09-11T02:06:23.892Z,98.03
2022-09-11T02:07:23.881Z,97.92
2022-09-11T02:08:23.827Z,97.92
2022-09-11T02:09:23.855Z,97.83
2022-09-11T02:10:23.802Z,97.83
2022-09-11T02:11:23.837Z,97.72
2022-09-11T02:12:23.875Z,97.87
2022-09-11T02:13:27.592Z,97.77
2022-09-11T02:14:23.771Z,97.87
2022-09-11T02:15:23.795Z,97.87
2022-09-11T02:16:23.787Z,97.87
2022-09-11T02:17:23.782Z,97.87
2022-09-11T02:18:23.753Z,97.87
2022-09-11T02:19:23.709Z,97.77
2022-09-11T02:20:23.729Z,97.87
2022-09-11T02:21:23.720Z,97.87
2022-09-11T02:22:23.710Z,97.87
2022-09-11T02:23:23.666Z,97.87
2022-09-11T02:24:23.663Z,97.87
2022-09-11T02:25:23.634Z,97.97
2022-09-11T02:26:23.619Z,97.92
2022-09-11T02:27:23.628Z,98.02
2022-09-11T02:28:23.656Z,98.12
2022-09-11T02:29:23.682Z,98.12
2022-09-11T02:30:23.587Z,98.22
2022-09-11T02:31:23.631Z,98.22
2022-09-11T02:32:23.553Z,98.32
2022-09-11T02:33:23.592Z,98.32
2022-09-11T02:34:23.581Z,98.32
2022-09-11T02:35:23.564Z,98.28
2022-09-11T02:36:23.517Z,98.28
2022-09-11T02:37:23.532Z,98.28
2022-09-11T02:38:23.535Z,98.28
2022-09-11T02:39:23.517Z,98.28
2022-09-11T02:40:23.514Z,98.18
2022-09-11T02:41:23.466Z,98.18
2022-09-11T02:42:23.495Z,98.18
2022-09-11T02:43:23.436Z,98.18
2022-09-11T02:44:23.438Z,98.18
2022-09-11T02:45:23.549Z,98.28
2022-09-11T02:46:23.442Z,98.18
2022-09-11T02:47:23.444Z,98.18
2022-09-11T02:48:23.405Z,98.18
2022-09-11T02:49:23.384Z,98.18
2022-09-11T02:50:23.373Z,98.28
2022-09-11T02:51:23.659Z,98.38
2022-09-11T02:52:23.378Z,98.33
2022-09-11T02:53:23.326Z,98.23
2022-09-11T02:54:23.338Z,98.13
2022-09-11T02:55:23.331Z,97.92
2022-09-11T02:56:23.330Z,98.03
2022-09-11T02:57:23.361Z,98.03
2022-09-11T02:58:23.321Z,98.03
2022-09-11T02:59:23.259Z,98.13
2022-09-11T03:00:23.253Z,98.33
2022-09-11T03:01:23.245Z,98.43
2022-09-11T03:02:23.281Z,98.43
2022-09-11T03:03:23.295Z,98.43
2022-09-11T03:04:23.282Z,98.43
2022-09-11T03:05:23.225Z,98.43
2022-09-11T03:06:23.209Z,98.43
2022-09-11T03:07:23.180Z,98.54
2022-09-11T03:08:23.186Z,98.33
2022-09-11T03:09:23.209Z,98.43
2022-09-11T03:10:23.170Z,98.33
2022-09-11T03:11:23.160Z,98.33
2022-09-11T03:12:23.180Z,98.43
2022-09-11T03:13:23.130Z,98.43
2022-09-11T03:14:23.111Z,98.43
2022-09-11T03:15:23.177Z,98.23
2022-09-11T03:16:23.089Z,98.23
2022-09-11T03:17:23.084Z,98.23
2022-09-11T03:18:23.073Z,98.33
2022-09-11T03:19:23.074Z,98.28
2022-09-11T03:20:23.137Z,98.33
2022-09-11T03:21:23.116Z,98.43
2022-09-11T03:22:23.078Z,98.39
2022-09-11T03:23:22.999Z,98.43
2022-09-11T03:24:23.102Z,98.39
2022-09-11T03:25:23.024Z,98.49
2022-09-11T03:26:22.968Z,98.49
2022-09-11T03:27:23.004Z,98.59
2022-09-11T03:28:22.966Z,98.54
2022-09-11T03:29:22.934Z,98.63
2022-09-11T03:30:22.952Z,98.84
2022-09-11T03:31:23.058Z,98.84
2022-09-11T03:32:22.931Z,98.84
2022-09-11T03:33:22.992Z,98.94
2022-09-11T03:34:22.915Z,99.04
2022-09-11T03:35:22.935Z,99.04
2022-09-11T03:36:22.851Z,99.14
2022-09-11T03:37:22.897Z,99.04
2022-09-11T03:38:22.833Z,99.24
2022-09-11T03:39:22.830Z,99.35
2022-09-11T03:40:22.883Z,99.35
2022-09-11T03:41:22.848Z,99.35
2022-09-11T03:42:22.838Z,99.35
2022-09-11T03:43:22.810Z,99.24
2022-09-11T03:44:22.802Z,99.24
2022-09-11T03:45:22.856Z,99.14
2022-09-11T03:46:22.773Z,99.24
2022-09-11T03:47:22.803Z,99.19
2022-09-11T03:48:22.750Z,99.35
2022-09-11T03:49:22.722Z,99.24
2022-09-11T03:50:22.802Z,99.24
2022-09-11T03:51:22.742Z,99.44
2022-09-11T03:52:22.729Z,99.85
2022-09-11T03:53:22.664Z,99.85
2022-09-11T03:54:22.710Z,99.75
2022-09-11T03:55:22.710Z,99.85
2022-09-11T03:56:22.658Z,99.75
2022-09-11T03:57:22.614Z,99.85
2022-09-11T03:58:22.618Z,99.75
2022-09-11T03:59:22.622Z,99.70
2022-09-11T04:00:22.627Z,99.60
2022-09-11T04:01:22.674Z,99.50
2022-09-11T04:02:22.670Z,99.50
2022-09-11T04:03:22.559Z,99.40
2022-09-11T04:04:22.596Z,99.40
2022-09-11T04:05:22.589Z,99.50
2022-09-11T04:06:22.536Z,99.50
2022-09-11T04:07:22.568Z,99.40
2022-09-11T04:08:22.541Z,99.40
2022-09-11T04:09:22.528Z,99.40
2022-09-11T04:10:22.551Z,99.40
2022-09-11T04:11:22.573Z,99.50
2022-09-11T04:12:22.501Z,99.60
2022-09-11T04:13:22.477Z,99.50
2022-09-11T04:14:22.517Z,99.50
2022-09-11T04:15:22.544Z,99.40
2022-09-11T04:16:22.481Z,99.40
2022-09-11T04:17:22.455Z,99.40
2022-09-11T04:18:22.503Z,99.40
2022-09-11T04:19:22.401Z,99.40
2022-09-11T04:20:22.443Z,99.40
2022-09-11T04:21:22.434Z,99.30
2022-09-11T04:22:22.411Z,99.40
2022-09-11T04:23:22.359Z,99.30
2022-09-11T04:24:22.427Z,99.50
2022-09-11T04:25:22.417Z,99.50
2022-09-11T04:26:22.360Z,99.60
2022-09-11T04:27:22.369Z,99.60
2022-09-11T04:28:22.367Z,99.60
2022-09-11T04:29:22.317Z,99.60
2022-09-11T04:30:22.386Z,99.50
2022-09-11T04:31:22.281Z,99.50
2022-09-11T04:32:22.365Z,99.50
2022-09-11T04:33:22.391Z,99.70
2022-09-11T04:34:22.299Z,99.80
2022-09-11T04:35:22.328Z,99.80
2022-09-11T04:36:22.225Z,99.80
2022-09-11T04:37:22.262Z,99.70
2022-09-11T04:38:22.172Z,99.60
2022-09-11T04:39:22.231Z,99.80
2022-09-11T04:40:22.278Z,99.80
2022-09-11T04:41:22.229Z,99.80
2022-09-11T04:42:22.237Z,99.70
2022-09-11T04:43:22.209Z,99.70
2022-09-11T04:44:22.167Z,99.60
2022-09-11T04:45:22.266Z,99.60
2022-09-11T04:46:22.200Z,99.70
2022-09-11T04:47:22.143Z,99.70
2022-09-11T04:48:22.091Z,99.60
2022-09-11T04:49:22.061Z,99.70
2022-09-11T04:50:22.160Z,99.60
2022-09-11T04:51:22.187Z,99.50
2022-09-11T04:52:22.068Z,99.60
2022-09-11T04:53:22.019Z,99.50
2022-09-11T04:54:22.042Z,99.60
2022-09-11T04:55:22.022Z,99.60
2022-09-11T04:56:21.988Z,99.60
2022-09-11T04:57:22.085Z,99.50
2022-09-11T04:58:22.049Z,99.50
2022-09-11T04:59:21.979Z,99.40
2022-09-11T05:00:21.988Z,99.50
2022-09-11T05:01:22.011Z,99.40
2022-09-11T05:02:22.110Z,99.30
2022-09-11T05:03:21.968Z,99.30
2022-09-11T05:04:25.965Z,99.40
2022-09-11T05:05:21.933Z,99.60
2022-09-11T05:06:21.995Z,99.60
2022-09-11T05:07:21.887Z,99.80
2022-09-11T05:08:21.982Z,99.80
2022-09-11T05:09:21.933Z,99.91
2022-09-11T05:10:21.880Z,99.80
2022-09-11T05:11:21.850Z,99.91
2022-09-11T05:12:21.896Z,99.91
2022-09-11T05:13:21.955Z,99.91
2022-09-11T05:14:21.841Z,99.91
2022-09-11T05:15:21.878Z,99.70
2022-09-11T05:16:21.929Z,99.91
2022-09-11T05:17:21.824Z,99.80
2022-09-11T05:18:21.816Z,99.80
2022-09-11T05:19:21.835Z,99.80
2022-09-11T05:20:21.818Z,99.70
2022-09-11T05:21:21.816Z,99.80
2022-09-11T05:22:21.738Z,99.70
2022-09-11T05:23:21.811Z,99.80
2022-09-11T05:24:21.749Z,99.70
2022-09-11T05:25:21.724Z,99.70
2022-09-11T05:26:21.706Z,99.70
2022-09-11T05:27:21.653Z,99.80
2022-09-11T05:28:21.762Z,99.60
2022-09-11T05:29:21.666Z,99.76
2022-09-11T05:30:21.742Z,99.80
2022-09-11T05:31:21.672Z,99.66
2022-09-11T05:32:21.689Z,99.76
2022-09-11T05:33:21.617Z,99.66
2022-09-11T05:34:21.587Z,99.66
2022-09-11T05:35:21.632Z,99.86
2022-09-11T05:36:21.602Z,99.86
2022-09-11T05:37:21.603Z,99.76
2022-09-11T05:38:21.643Z,99.76
2022-09-11T05:39:21.535Z,99.86
2022-09-11T05:40:21.588Z,99.76
2022-09-11T05:41:21.588Z,99.86
2022-09-11T05:42:21.538Z,99.76
2022-09-11T05:43:21.665Z,99.66
2022-09-11T05:44:21.549Z,99.76
2022-09-11T05:45:21.537Z,99.66
2022-09-11T05:46:21.521Z,99.66
2022-09-11T05:47:21.547Z,99.66
2022-09-11T05:48:21.553Z,99.76
2022-09-11T05:49:21.556Z,99.76
2022-09-11T05:50:21.512Z,99.76
2022-09-11T05:51:21.434Z,99.76
2022-09-11T05:52:21.415Z,99.66
2022-09-11T05:53:21.428Z,99.66
2022-09-11T05:54:21.475Z,99.66
2022-09-11T05:55:21.583Z,99.76
2022-09-11T05:56:21.486Z,99.55
2022-09-11T05:57:21.369Z,99.66
2022-09-11T05:58:21.550Z,99.55
2022-09-11T05:59:21.320Z,99.46
2022-09-11T06:00:21.349Z,99.55
2022-09-11T06:01:21.452Z,99.66
2022-09-11T06:02:21.339Z,99.76
2022-09-11T06:03:21.269Z,99.66
2022-09-11T06:04:21.346Z,99.66
2022-09-11T06:05:21.413Z,99.66
2022-09-11T06:06:21.359Z,99.66
2022-09-11T06:07:21.358Z,99.66
2022-09-11T06:08:21.357Z,99.66
2022-09-11T06:09:21.178Z,99.55
2022-09-11T06:10:21.269Z,99.55
2022-09-11T06:11:21.217Z,99.55
2022-09-11T06:12:21.279Z,99.51
2022-09-11T06:13:21.195Z,99.51
2022-09-11T06:14:21.269Z,99.51
2022-09-11T06:15:45.304Z,99.51
2022-09-11T06:16:21.301Z,99.51
2022-09-11T06:17:21.152Z,99.51
2022-09-11T06:18:21.158Z,99.51
2022-09-11T06:19:21.206Z,99.51
2022-09-11T06:20:21.237Z,99.51
2022-09-11T06:21:21.246Z,99.51
2022-09-11T06:22:21.153Z,99.51
2022-09-11T06:23:21.120Z,99.30
2022-09-11T06:24:21.049Z,99.10
2022-09-11T06:25:21.139Z,99.10
2022-09-11T06:26:21.099Z,98.90
2022-09-11T06:27:21.070Z,98.90
2022-09-11T06:28:21.048Z,99.01
2022-09-11T06:29:21.112Z,99.01
2022-09-11T06:30:21.028Z,99.01
2022-09-11T06:31:21.201Z,98.90
2022-09-11T06:32:21.011Z,98.80
2022-09-11T06:33:21.083Z,98.80
2022-09-11T06:34:20.963Z,98.75
2022-09-11T06:35:21.079Z,98.75
2022-09-11T06:36:21.092Z,98.65
2022-09-11T06:37:20.905Z,98.55
2022-09-11T06:38:20.998Z,98.45
2022-09-11T06:39:20.948Z,98.45
2022-09-11T06:40:21.286Z,98.45
2022-09-11T06:41:21.042Z,98.55
2022-09-11T06:42:20.943Z,98.45
2022-09-11T06:43:20.887Z,98.35
2022-09-11T06:44:21.077Z,98.35
2022-09-11T06:45:20.947Z,98.35
2022-09-11T06:46:20.913Z,98.35
2022-09-11T06:47:20.985Z,98.35
2022-09-11T06:48:21.055Z,98.25
2022-09-11T06:49:21.236Z,98.25
2022-09-11T06:50:20.884Z,98.14
2022-09-11T06:51:20.955Z,98.05
2022-09-11T06:52:20.887Z,98.35
2022-09-11T06:53:20.873Z,98.35
2022-09-11T06:54:20.735Z,98.35
2022-09-11T06:55:20.927Z,98.35
2022-09-11T06:56:20.840Z,98.45
2022-09-11T06:57:20.677Z,98.35
2022-09-11T06:58:20.762Z,98.35
2022-09-11T06:59:20.744Z,98.30
2022-09-11T07:00:20.689Z,98.30
2022-09-11T07:01:20.741Z,98.20
2022-09-11T07:02:20.742Z,98.05
2022-09-11T07:03:20.714Z,97.85
2022-09-11T07:04:20.677Z,97.80
2022-09-11T07:05:20.639Z,97.80
2022-09-11T07:06:20.660Z,97.90
2022-09-11T07:07:20.592Z,97.90
2022-09-11T07:08:24.357Z,97.90
2022-09-11T07:09:20.589Z,97.90
2022-09-11T07:10:20.611Z,97.90
2022-09-11T07:11:20.651Z,97.80
2022-09-11T07:12:20.507Z,97.90
2022-09-11T07:13:20.459Z,97.90
2022-09-11T07:14:20.529Z,97.85
2022-09-11T07:15:20.560Z,97.85
2022-09-11T07:16:20.540Z,97.85
2022-09-11T07:17:20.449Z,97.75
2022-09-11T07:18:20.407Z,97.75
2022-09-11T07:19:20.560Z,97.65
2022-09-11T07:20:20.410Z,97.55
2022-09-11T07:21:20.378Z,97.34
2022-09-11T07:22:20.459Z,97.34
2022-09-11T07:23:20.400Z,97.05
2022-09-11T07:24:20.553Z,97.05
2022-09-11T07:25:20.424Z,96.74
2022-09-11T07:26:20.406Z,96.84
2022-09-11T07:27:20.408Z,96.84
2022-09-11T07:28:20.289Z,96.94
2022-09-11T07:29:20.309Z,96.94
2022-09-11T07:30:20.269Z,97.05
2022-09-11T07:31:21.225Z,97.05
2022-09-11T07:32:20.247Z,97.05
2022-09-11T07:33:20.311Z,97.14
2022-09-11T07:34:20.285Z,97.05
2022-09-11T07:35:20.474Z,97.05
2022-09-11T07:36:20.283Z,97.14
2022-09-11T07:37:20.249Z,97.05
2022-09-11T07:38:20.338Z,96.94
2022-09-11T07:39:20.285Z,97.05
2022-09-11T07:40:20.179Z,97.05
2022-09-11T07:41:20.273Z,96.94
2022-09-11T07:42:20.262Z,96.94
2022-09-11T07:43:20.202Z,96.94
2022-09-11T07:44:20.168Z,96.94
2022-09-11T07:45:22.732Z,96.94
2022-09-11T07:46:20.122Z,96.94
2022-09-11T07:47:20.091Z,96.94
2022-09-11T07:48:20.141Z,97.00
2022-09-11T07:49:20.196Z,96.89
2022-09-11T07:50:20.172Z,97.00
2022-09-11T07:51:20.112Z,97.20
2022-09-11T07:52:20.093Z,97.10
2022-09-11T07:53:20.041Z,97.00
2022-09-11T07:54:20.032Z,96.89
2022-09-11T07:55:20.143Z,96.59
2022-09-11T07:56:20.062Z,96.39
2022-09-11T07:57:20.153Z,96.49
2022-09-11T07:58:19.981Z,96.49
2022-09-11T07:59:20.106Z,96.49
2022-09-11T08:00:20.068Z,96.29
2022-09-11T08:01:20.246Z,96.19
2022-09-11T08:02:20.164Z,95.98
2022-09-11T08:03:19.961Z,96.09
2022-09-11T08:04:19.864Z,96.19
2022-09-11T08:05:20.186Z,96.29
2022-09-11T08:06:22.368Z,96.39
2022-09-11T08:07:20.073Z,96.29
2022-09-11T08:08:19.948Z,96.19
2022-09-11T08:09:19.931Z,96.09
2022-09-11T08:10:28.178Z,95.89
2022-09-11T08:11:19.936Z,95.89
2022-09-11T08:12:19.973Z,95.94
2022-09-11T08:13:19.900Z,96.04
2022-09-11T08:14:19.848Z,96.04
2022-09-11T08:15:19.901Z,96.04
2022-09-11T08:16:19.829Z,96.04
2022-09-11T08:17:19.775Z,96.04
2022-09-11T08:18:19.766Z,96.04
2022-09-11T08:19:19.799Z,96.04
2022-09-11T08:20:19.905Z,95.90
2022-09-11T08:21:19.853Z,95.90
2022-09-11T08:22:19.855Z,95.90
2022-09-11T08:23:19.865Z,95.79
2022-09-11T08:24:19.797Z,95.59
2022-09-11T08:25:19.775Z,95.35
2022-09-11T08:26:19.769Z,95.14
2022-09-11T08:27:19.768Z,94.84
2022-09-11T08:28:19.861Z,94.44
2022-09-11T08:29:19.658Z,94.13
2022-09-11T08:30:19.908Z,93.73
2022-09-11T08:31:20.040Z,93.33
2022-09-11T08:32:20.226Z,93.53
2022-09-11T08:33:19.744Z,93.73
2022-09-11T08:34:20.217Z,93.99
2022-09-11T08:35:20.131Z,93.89
2022-09-11T08:36:20.139Z,93.18
2022-09-11T08:37:20.123Z,92.68
2022-09-11T08:38:19.683Z,92.68
2022-09-11T08:39:19.788Z,92.78
2022-09-11T08:40:20.413Z,92.98
2022-09-11T08:41:20.188Z,93.08
2022-09-11T08:42:19.786Z,93.24
2022-09-11T08:43:19.709Z,93.14
2022-09-11T08:44:19.917Z,93.04
2022-09-11T08:45:19.720Z,92.83
2022-09-11T08:46:19.936Z,92.74
2022-09-11T08:47:20.192Z,92.83
2022-09-11T08:48:20.139Z,92.94
2022-09-11T08:49:19.865Z,92.99
2022-09-11T08:50:19.835Z,92.69
2022-09-11T08:51:19.837Z,92.29
2022-09-11T08:52:19.600Z,91.38
2022-09-11T08:53:19.635Z,91.69
2022-09-11T08:54:20.221Z,90.88
2022-09-11T08:56:37.688Z,91.38
2022-09-11T08:58:10.949Z,91.69
2022-09-11T08:59:11.718Z,91.49
2022-09-11T09:00:11.439Z,91.38
2022-09-11T09:01:11.458Z,91.44
2022-09-11T09:02:11.347Z,91.74
2022-09-11T09:03:11.251Z,91.54
2022-09-11T09:04:11.287Z,91.34
2022-09-11T09:05:11.338Z,90.03
2022-09-11T09:06:11.232Z,89.37
2022-09-11T09:07:11.304Z,89.67
2022-09-11T09:08:11.145Z,90.17
2022-09-11T09:09:11.210Z,90.78
2022-09-11T09:10:11.214Z,90.78
2022-09-11T09:11:11.156Z,90.88
2022-09-11T09:12:11.265Z,90.73
2022-09-11T09:13:11.242Z,90.84
2022-09-11T09:14:11.157Z,90.94
2022-09-11T09:15:11.138Z,90.94
2022-09-11T09:16:11.132Z,90.94
2022-09-11T09:17:11.103Z,90.94
2022-09-11T09:18:11.031Z,90.73
2022-09-11T09:19:11.101Z,90.29
2022-09-11T09:20:11.040Z,90.09
2022-09-11T09:21:11.006Z,90.09
2022-09-11T09:22:11.028Z,90.19
2022-09-11T09:23:10.990Z,90.09
2022-09-11T09:24:10.993Z,90.19
2022-09-11T09:25:10.987Z,89.48
2022-09-11T09:26:10.946Z,88.82
2022-09-11T09:27:10.988Z,88.82
2022-09-11T09:28:10.928Z,89.08
2022-09-11T09:29:11.018Z,89.59
2022-09-11T09:30:10.939Z,89.69
2022-09-11T09:31:11.019Z,89.59
2022-09-11T09:32:10.944Z,89.48
2022-09-11T09:33:13.299Z,89.44
2022-09-11T09:34:10.977Z,89.14
2022-09-11T09:35:10.955Z,89.04
2022-09-11T09:36:10.858Z,89.14
2022-09-11T09:37:10.923Z,89.44
2022-09-11T09:38:10.805Z,88.90
2022-09-11T09:39:10.808Z,88.43
2022-09-11T09:40:10.986Z,88.34
2022-09-11T09:41:10.869Z,88.39
2022-09-11T09:42:10.797Z,88.43
2022-09-11T09:43:10.835Z,88.13
2022-09-11T09:44:10.787Z,87.53
2022-09-11T09:45:10.818Z,87.53
2022-09-11T09:46:10.838Z,87.73
2022-09-11T09:47:10.724Z,87.73
2022-09-11T09:48:10.718Z,87.83
2022-09-11T09:49:10.781Z,88.34
2022-09-11T09:50:10.786Z,88.29
2022-09-11T09:51:10.660Z,88.29
2022-09-11T09:52:10.711Z,87.99
2022-09-11T09:53:10.653Z,87.89
2022-09-11T09:54:10.664Z,87.89
2022-09-11T09:55:10.676Z,87.79
2022-09-11T09:56:10.629Z,86.79
2022-09-11T09:57:10.648Z,84.57
2022-09-11T09:58:10.576Z,84.31
2022-09-11T09:59:10.578Z,84.91
2022-09-11T10:00:10.639Z,85.22
2022-09-11T10:01:10.722Z,86.08
2022-09-11T10:02:10.640Z,86.18
2022-09-11T10:03:10.522Z,86.18
2022-09-11T10:04:10.553Z,86.28
2022-09-11T10:05:10.551Z,85.17
2022-09-11T10:06:10.558Z,85.17
2022-09-11T10:07:10.560Z,85.44
2022-09-11T10:08:10.509Z,83.57
2022-09-11T10:09:10.464Z,82.86
2022-09-11T10:10:10.459Z,83.37
2022-09-11T10:11:10.459Z,83.06
2022-09-11T10:12:10.443Z,84.17
2022-09-11T10:13:19.360Z,84.94
2022-09-11T10:14:13.651Z,85.14
2022-09-11T10:15:10.448Z,84.94
2022-09-11T10:16:10.453Z,84.80
2022-09-11T10:17:10.369Z,84.69
2022-09-11T10:18:10.380Z,83.79
2022-09-11T10:19:10.357Z,83.59
2022-09-11T10:20:10.356Z,83.89
2022-09-11T10:21:10.336Z,83.79
2022-09-11T10:22:10.324Z,83.59
2022-09-11T10:23:10.337Z,82.45
2022-09-11T10:24:10.283Z,82.48
2022-09-11T10:25:10.296Z,82.45
2022-09-11T10:26:10.261Z,82.45
2022-09-11T10:27:10.278Z,82.81
2022-09-11T10:28:10.234Z,82.70
2022-09-11T10:29:10.225Z,81.30
2022-09-11T10:30:10.249Z,80.63
2022-09-11T10:31:10.235Z,80.24
2022-09-11T10:32:10.178Z,79.83
2022-09-11T10:33:10.177Z,81.54
2022-09-11T10:34:10.183Z,82.04
2022-09-11T10:35:10.190Z,82.24
2022-09-11T10:36:10.230Z,82.84
2022-09-11T10:37:10.162Z,81.78
2022-09-11T10:38:10.146Z,82.08
2022-09-11T10:39:10.125Z,82.14
2022-09-11T10:40:10.176Z,82.34
2022-09-11T10:41:10.107Z,82.24
2022-09-11T10:42:10.128Z,79.57
2022-09-11T10:43:10.089Z,80.21
2022-09-11T10:44:10.058Z,81.27
2022-09-11T10:45:10.100Z,82.68
2022-09-11T10:46:10.085Z,82.89
2022-09-11T10:47:10.062Z,81.48
2022-09-11T10:48:09.993Z,82.64
2022-09-11T10:49:09.989Z,83.04
2022-09-11T10:50:09.995Z,82.90
2022-09-11T10:51:09.980Z,82.00
2022-09-11T10:52:09.983Z,82.37
2022-09-11T10:53:09.937Z,81.96
2022-09-11T10:54:09.939Z,80.96
2022-09-11T10:55:09.922Z,76.82
2022-09-11T10:56:09.935Z,79.03
2022-09-11T10:57:09.939Z,79.53
2022-09-11T10:58:09.909Z,80.83
2022-09-11T10:59:09.896Z,80.40
2022-09-11T11:00:09.889Z,80.80
2022-09-11T11:01:09.950Z,81.10
2022-09-11T11:02:09.868Z,77.48
2022-09-11T11:03:09.856Z,75.74
2022-09-11T11:04:12.322Z,76.95
2022-09-11T11:05:09.817Z,78.22
2022-09-11T11:06:09.792Z,77.98
2022-09-11T11:07:09.798Z,76.87
2022-09-11T11:08:09.831Z,77.94
2022-09-11T11:09:09.773Z,77.24
2022-09-11T11:10:09.822Z,75.93
2022-09-11T11:11:09.756Z,78.00
2022-09-11T11:12:09.743Z,78.27
2022-09-11T11:13:09.735Z,75.56
2022-09-11T11:14:09.734Z,73.36
2022-09-11T11:15:09.715Z,73.93
2022-09-11T11:16:09.723Z,73.33
2022-09-11T11:17:09.666Z,75.43
2022-09-11T11:18:09.665Z,72.69
2022-09-11T11:19:09.671Z,75.19
2022-09-11T11:20:09.638Z,73.49
2022-09-11T11:21:09.622Z,72.63
2022-09-11T11:22:09.638Z,72.33
2022-09-11T11:23:13.312Z,74.63
2022-09-11T11:24:09.647Z,74.73
2022-09-11T11:25:09.579Z,74.26
2022-09-11T11:26:09.579Z,76.17
2022-09-11T11:27:09.558Z,76.23
2022-09-11T11:28:09.551Z,74.66
2022-09-11T11:29:09.539Z,71.42
2022-09-11T11:30:09.562Z,75.23
2022-09-11T11:31:09.558Z,71.12
2022-09-11T11:32:09.512Z,72.23
2022-09-11T11:33:09.504Z,74.13
2022-09-11T11:34:09.480Z,74.03
2022-09-11T11:35:09.505Z,74.22
2022-09-11T11:36:09.484Z,74.96
2022-09-11T11:37:09.454Z,74.56
2022-09-11T11:38:09.442Z,73.93
2022-09-11T11:39:09.431Z,70.50
2022-09-11T11:40:09.627Z,72.19
2022-09-11T11:41:09.430Z,74.90
2022-09-11T11:42:09.408Z,75.40
2022-09-11T11:43:09.405Z,71.83
2022-09-11T11:44:09.421Z,73.67
2022-09-11T11:45:09.458Z,75.67
2022-09-11T11:46:09.549Z,76.37
2022-09-11T11:47:09.338Z,77.98
2022-09-11T11:48:09.355Z,77.48
2022-09-11T11:49:09.444Z,72.86
2022-09-11T11:50:09.317Z,72.20
2022-09-11T11:51:09.406Z,75.31
2022-09-11T11:52:09.289Z,75.41
2022-09-11T11:53:09.281Z,76.91
2022-09-11T11:54:09.328Z,75.81
2022-09-11T11:55:09.243Z,77.01
2022-09-11T11:56:09.758Z,76.31
2022-09-11T11:57:09.241Z,77.17
2022-09-11T11:58:09.212Z,77.74
2022-09-11T11:59:09.508Z,74.70
2022-09-11T12:00:09.275Z,72.09
2022-09-11T12:01:09.526Z,72.60
2022-09-11T12:02:09.380Z,71.09
2022-09-11T12:03:09.194Z,71.96
2022-09-11T12:04:09.187Z,71.73
2022-09-11T12:05:09.186Z,72.23
2022-09-11T12:06:09.118Z,69.89
2022-09-11T12:07:09.159Z,69.99
2022-09-11T12:08:09.112Z,69.62
2022-09-11T12:09:09.276Z,70.53
2022-09-11T12:10:09.088Z,70.12
2022-09-11T12:11:09.101Z,69.23
2022-09-11T12:12:09.077Z,69.86
2022-09-11T12:13:09.064Z,71.69
2022-09-11T12:14:09.044Z,72.89
2022-09-11T12:15:09.221Z,71.73
2022-09-11T12:16:11.286Z,73.73
2022-09-11T12:17:09.032Z,74.93
2022-09-11T12:18:09.006Z,73.23
2022-09-11T12:19:09.003Z,71.83
2022-09-11T12:20:09.006Z,73.27
2022-09-11T12:21:09.017Z,74.57
2022-09-11T12:22:08.978Z,74.37
2022-09-11T12:23:08.936Z,74.57
2022-09-11T12:24:09.005Z,73.77
2022-09-11T12:25:08.960Z,74.27
2022-09-11T12:26:08.956Z,75.67
2022-09-11T12:27:11.840Z,74.97
2022-09-11T12:28:08.872Z,75.17
2022-09-11T12:29:08.885Z,74.57
2022-09-11T12:30:08.922Z,73.57
2022-09-11T12:31:08.934Z,73.00
2022-09-11T12:32:08.846Z,75.01
2022-09-11T12:33:08.820Z,75.21
2022-09-11T12:34:08.817Z,75.60
2022-09-11T12:35:08.819Z,77.08
2022-09-11T12:36:08.832Z,76.87
2022-09-11T12:37:08.760Z,76.28
2022-09-11T12:38:08.788Z,73.64
2022-09-11T12:39:08.786Z,75.24
2022-09-11T12:40:08.809Z,75.48
2022-09-11T12:41:08.760Z,75.38
2022-09-11T12:42:08.754Z,76.34
2022-09-11T12:43:09.295Z,76.34
2022-09-11T12:44:08.683Z,74.94
2022-09-11T12:45:08.771Z,76.31
2022-09-11T12:46:08.706Z,76.78
2022-09-11T12:47:08.690Z,76.04
2022-09-11T12:48:08.676Z,73.60
2022-09-11T12:49:22.067Z,73.60
2022-09-11T12:50:08.757Z,72.96
2022-09-11T12:51:08.704Z,73.36
2022-09-11T12:52:08.775Z,72.83
2022-09-11T12:53:08.606Z,73.19
2022-09-11T12:54:08.668Z,72.39